Time;durP1;ratioP1;P1;durP2;ratioP2;P2;SDS_P1;SDS_P2;PMS_P1;PMS_P2;Temp;Humidity;BMP_temperature;BMP_pressure;BME280_temperature;BME280_humidity;BME280_pressure;Samples;Min_cycle;Max_cycle;Signal;HPM_P1;HPM_P2
2021/03/23 00:01:28;;;;;;;6.72;3.33;;;6.20;99.90;;;;;;5132153;27;20096;-64
2021/03/23 00:03:54;;;;;;;6.50;3.60;;;6.20;99.90;;;;;;5130613;27;20441;-64
2021/03/23 00:06:23;;;;;;;8.03;3.47;;;6.10;99.90;;;;;;5131869;27;20047;-63
2021/03/23 00:08:54;;;;;;;7.25;3.80;;;6.10;99.90;;;;;;5131785;27;20058;-64
2021/03/23 00:11:29;;;;;;;6.75;3.60;;;6.10;99.90;;;;;;5131999;27;20039;-63
2021/03/23 00:13:57;;;;;;;7.05;3.40;;;6.10;99.90;;;;;;5131629;27;20039;-63
2021/03/23 00:16:26;;;;;;;6.85;3.47;;;6.10;99.90;;;;;;5131469;27;20054;-64
2021/03/23 00:18:52;;;;;;;7.43;3.60;;;6.10;99.90;;;;;;5131825;27;20070;-64
2021/03/23 00:21:19;;;;;;;8.18;4.10;;;6.10;99.90;;;;;;5131576;27;20053;-64
2021/03/23 00:23:46;;;;;;;8.00;3.80;;;6.00;99.90;;;;;;5131061;27;20137;-63
2021/03/23 00:26:14;;;;;;;6.43;4.05;;;6.10;99.90;;;;;;5131733;27;20078;-63
2021/03/23 00:28:45;;;;;;;8.27;3.80;;;6.10;99.90;;;;;;5131450;27;20050;-64
2021/03/23 00:31:12;;;;;;;6.28;4.13;;;6.10;99.90;;;;;;5131444;27;20539;-63
2021/03/23 00:33:38;;;;;;;8.50;4.50;;;6.10;99.90;;;;;;5131361;27;20110;-64
2021/03/23 00:36:04;;;;;;;8.47;4.20;;;6.10;99.90;;;;;;5130129;27;20119;-63
2021/03/23 00:38:33;;;;;;;6.47;4.00;;;6.10;99.90;;;;;;5131188;27;20095;-64
2021/03/23 00:40:59;;;;;;;5.32;4.00;;;6.10;99.90;;;;;;5130803;27;20089;-64
2021/03/23 00:43:24;;;;;;;4.72;3.65;;;6.10;99.90;;;;;;5131123;27;20119;-63
2021/03/23 00:45:50;;;;;;;7.10;4.00;;;6.10;99.90;;;;;;5129282;27;20434;-64
2021/03/23 00:48:18;;;;;;;7.03;3.83;;;6.10;99.90;;;;;;5130695;27;20062;-63
2021/03/23 00:50:44;;;;;;;6.57;3.60;;;6.00;99.90;;;;;;5130951;27;20104;-64
2021/03/23 00:53:11;;;;;;;7.73;3.73;;;6.00;99.90;;;;;;5131148;27;20047;-64
2021/03/23 00:55:36;;;;;;;7.82;3.60;;;6.00;99.90;;;;;;5130767;27;20138;-63
2021/03/23 00:58:02;;;;;;;7.47;3.27;;;6.00;99.90;;;;;;5130974;27;20043;-63
2021/03/23 01:00:29;;;;;;;8.33;3.20;;;6.00;99.90;;;;;;5130400;27;20154;-63
2021/03/23 01:02:55;;;;;;;5.03;3.30;;;6.00;99.90;;;;;;5130806;27;20481;-63
2021/03/23 01:05:23;;;;;;;8.35;3.72;;;6.00;99.90;;;;;;5130924;27;20039;-64
2021/03/23 01:07:49;;;;;;;7.22;3.45;;;6.00;99.90;;;;;;5130407;27;20047;-64
2021/03/23 01:10:18;;;;;;;7.37;3.17;;;6.10;99.90;;;;;;5130726;27;20051;-63
2021/03/23 01:12:44;;;;;;;5.53;3.25;;;6.00;99.90;;;;;;5129161;27;20044;-64
2021/03/23 01:15:13;;;;;;;5.65;3.60;;;6.00;99.90;;;;;;5130856;27;20576;-62
2021/03/23 01:17:39;;;;;;;6.70;3.15;;;6.00;99.90;;;;;;5130334;27;20046;-64
2021/03/23 01:20:06;;;;;;;6.13;3.37;;;6.00;99.90;;;;;;5130560;27;20143;-64
2021/03/23 01:22:32;;;;;;;6.15;3.20;;;6.00;99.90;;;;;;5130491;27;20534;-63
2021/03/23 01:24:58;;;;;;;6.93;3.58;;;6.00;99.90;;;;;;5130125;27;20072;-63
2021/03/23 01:27:24;;;;;;;7.37;3.53;;;6.00;99.90;;;;;;5130164;27;20043;-63
2021/03/23 01:29:50;;;;;;;5.57;3.13;;;5.90;99.90;;;;;;5130629;27;20451;-64
2021/03/23 01:32:15;;;;;;;7.63;3.80;;;6.00;99.90;;;;;;5130617;27;20420;-64
2021/03/23 01:34:42;;;;;;;7.97;3.60;;;5.90;99.90;;;;;;5130047;27;20050;-64
2021/03/23 01:37:08;;;;;;;6.05;3.70;;;6.00;99.90;;;;;;5130394;27;20544;-64
2021/03/23 01:39:34;;;;;;;11.33;4.37;;;6.00;99.90;;;;;;5130268;27;20131;-63
2021/03/23 01:41:59;;;;;;;8.87;3.67;;;6.00;99.90;;;;;;5130218;27;20051;-63
2021/03/23 01:44:26;;;;;;;7.07;3.33;;;6.00;99.90;;;;;;5129774;27;20050;-63
2021/03/23 01:46:52;;;;;;;5.25;3.60;;;6.00;99.90;;;;;;5130113;27;20096;-63
2021/03/23 01:49:36;;;;;;;9.00;3.80;;;6.00;99.90;;;;;;5130071;27;20055;-64
2021/03/23 01:52:05;;;;;;;;;;;6.00;99.90;;;;;;5130278;27;20070;-63
2021/03/23 01:54:36;;;;;;;8.25;4.45;;;5.90;99.90;;;;;;5130309;27;19926;-64
2021/03/23 01:57:09;;;;;;;5.95;3.83;;;6.00;99.90;;;;;;5129813;27;20104;-63
2021/03/23 01:59:40;;;;;;;6.80;4.00;;;6.00;99.90;;;;;;5129794;27;20485;-64
2021/03/23 02:02:06;;;;;;;8.27;4.30;;;6.00;99.90;;;;;;5129766;27;20405;-64
2021/03/23 02:04:31;;;;;;;7.53;4.13;;;6.00;99.90;;;;;;5129722;27;20050;-62
2021/03/23 02:06:57;;;;;;;7.70;3.90;;;6.00;99.90;;;;;;5129567;27;20312;-64
2021/03/23 02:09:29;;;;;;;11.23;4.43;;;6.00;99.90;;;;;;5129759;27;20465;-63
2021/03/23 02:12:04;;;;;;;7.30;4.35;;;6.00;99.90;;;;;;5129618;27;20044;-63
2021/03/23 02:14:39;;;;;;;8.38;4.18;;;6.00;99.90;;;;;;5129500;27;20119;-63
2021/03/23 02:17:29;;;;;;;8.75;4.72;;;5.90;99.90;;;;;;5129738;27;20083;-63
2021/03/23 02:19:57;;;;;;;8.05;4.57;;;5.90;99.90;;;;;;5129347;27;20082;-63
2021/03/23 02:22:26;;;;;;;8.25;4.80;;;5.90;99.90;;;;;;5129444;27;20146;-64
2021/03/23 02:24:52;;;;;;;5.97;4.30;;;5.90;99.90;;;;;;5129716;27;20051;-64
2021/03/23 02:27:20;;;;;;;8.00;4.50;;;5.90;99.90;;;;;;5129368;27;20133;-63
2021/03/23 02:29:47;;;;;;;7.65;4.90;;;5.90;99.90;;;;;;5129439;27;20126;-64
2021/03/23 02:32:12;;;;;;;9.68;4.45;;;5.80;99.90;;;;;;5129345;27;20074;-62
2021/03/23 02:34:38;;;;;;;9.07;4.10;;;5.90;99.90;;;;;;5129513;27;20040;-63
2021/03/23 02:37:04;;;;;;;7.33;4.40;;;5.80;99.90;;;;;;5128486;27;20175;-64
2021/03/23 02:39:32;;;;;;;8.85;4.80;;;5.80;99.90;;;;;;5127905;27;20115;-64
2021/03/23 02:41:58;;;;;;;9.10;4.80;;;5.80;99.90;;;;;;5129230;27;20481;-64
2021/03/23 02:44:25;;;;;;;8.77;4.55;;;5.80;99.90;;;;;;5129081;27;20154;-63
2021/03/23 02:46:51;;;;;;;9.32;4.60;;;5.80;99.90;;;;;;5128828;27;20114;-64
2021/03/23 02:49:17;;;;;;;9.65;5.07;;;5.70;99.90;;;;;;5129379;27;20082;-64
2021/03/23 02:51:43;;;;;;;10.87;4.77;;;5.70;99.90;;;;;;5128932;28;20074;-64
2021/03/23 02:54:09;;;;;;;12.17;5.37;;;5.70;99.90;;;;;;5129070;28;20422;-64
2021/03/23 02:56:35;;;;;;;9.30;5.27;;;5.70;99.90;;;;;;5128686;27;20452;-64
2021/03/23 02:59:00;;;;;;;7.17;4.70;;;5.60;99.90;;;;;;5129287;27;20047;-64
2021/03/23 03:01:26;;;;;;;7.93;4.83;;;5.50;99.90;;;;;;5134145;27;20047;-63
2021/03/23 03:03:53;;;;;;;11.90;5.10;;;5.40;99.90;;;;;;5134094;27;20035;-63
2021/03/23 03:06:19;;;;;;;9.57;5.10;;;5.40;99.90;;;;;;5134330;27;20054;-63
2021/03/23 03:08:45;;;;;;;9.90;5.40;;;5.30;99.90;;;;;;5134353;27;20517;-65
2021/03/23 03:11:11;;;;;;;9.33;5.37;;;5.20;99.90;;;;;;5133403;27;20355;-63
2021/03/23 03:13:36;;;;;;;9.00;5.70;;;5.10;99.90;;;;;;5132913;27;20043;-63
2021/03/23 03:16:04;;;;;;;9.10;5.43;;;5.00;99.90;;;;;;5132727;27;20396;-63
2021/03/23 03:18:31;;;;;;;10.93;5.28;;;5.00;99.90;;;;;;5133034;27;20441;-63
2021/03/23 03:20:58;;;;;;;8.02;5.55;;;4.90;99.90;;;;;;5133085;27;20385;-64
2021/03/23 03:23:24;;;;;;;10.18;5.80;;;4.80;99.90;;;;;;5132932;27;20143;-63
2021/03/23 03:25:51;;;;;;;12.02;6.45;;;4.70;99.90;;;;;;5132866;27;20047;-63
2021/03/23 03:28:18;;;;;;;10.52;6.10;;;4.60;99.90;;;;;;5133077;27;20047;-62
2021/03/23 03:30:47;;;;;;;12.98;5.95;;;4.50;99.90;;;;;;5132637;27;20043;-63
2021/03/23 03:33:15;;;;;;;11.95;6.07;;;4.50;99.90;;;;;;5132807;27;20043;-63
2021/03/23 03:35:44;;;;;;;12.57;6.38;;;4.40;99.90;;;;;;5132472;27;20047;-63
2021/03/23 03:38:09;;;;;;;10.25;6.28;;;4.40;99.90;;;;;;5132207;27;20458;-63
2021/03/23 03:40:45;;;;;;;11.03;6.80;;;4.30;99.90;;;;;;5132003;27;20062;-63
2021/03/23 03:43:12;;;;;;;11.63;6.40;;;4.30;99.90;;;;;;5132342;27;20350;-63
2021/03/23 03:45:38;;;;;;;10.55;6.50;;;4.30;99.90;;;;;;5132632;27;20047;-63
2021/03/23 03:48:04;;;;;;;9.45;6.88;;;4.30;99.90;;;;;;5132107;27;20139;-63
2021/03/23 03:50:31;;;;;;;12.43;7.13;;;4.30;99.90;;;;;;5132393;27;20059;-63
2021/03/23 03:52:57;;;;;;;10.52;7.20;;;4.30;99.90;;;;;;5132368;27;20134;-64
2021/03/23 03:55:26;;;;;;;12.93;7.13;;;4.40;99.90;;;;;;5132004;27;20062;-63
2021/03/23 03:57:52;;;;;;;12.57;7.00;;;4.50;99.90;;;;;;5131710;27;20139;-63
2021/03/23 04:00:20;;;;;;;9.97;6.60;;;4.60;99.90;;;;;;5132414;27;20138;-63
2021/03/23 04:02:48;;;;;;;10.60;6.95;;;4.60;99.90;;;;;;5132016;27;20046;-63
2021/03/23 04:05:23;;;;;;;12.30;7.28;;;4.70;99.90;;;;;;5131413;27;20520;-63
2021/03/23 04:07:49;;;;;;;12.48;7.18;;;4.80;99.90;;;;;;5132019;27;20133;-63
2021/03/23 04:10:18;;;;;;;13.77;8.03;;;4.80;99.90;;;;;;5131330;27;20441;-63
2021/03/23 04:12:43;;;;;;;11.75;7.65;;;4.80;99.90;;;;;;5130672;27;20473;-63
2021/03/23 04:15:11;;;;;;;12.68;8.00;;;4.90;99.90;;;;;;5131727;27;20146;-65
2021/03/23 04:17:37;;;;;;;14.20;7.80;;;4.90;99.90;;;;;;5131776;27;20046;-63
2021/03/23 04:20:04;;;;;;;11.30;7.97;;;5.20;99.90;;;;;;5131583;27;20372;-63
2021/03/23 04:22:30;;;;;;;12.32;8.70;;;5.10;99.90;;;;;;5131383;27;20066;-64
2021/03/23 04:24:55;;;;;;;11.73;8.50;;;5.10;99.90;;;;;;5131510;27;20047;-63
2021/03/23 04:27:21;;;;;;;16.93;9.17;;;5.10;99.90;;;;;;5131499;27;20043;-63
2021/03/23 04:29:47;;;;;;;16.52;9.45;;;5.10;99.90;;;;;;5132031;27;20461;-64
2021/03/23 04:32:13;;;;;;;14.67;9.83;;;5.20;99.90;;;;;;5130059;27;20089;-62
2021/03/23 04:34:39;;;;;;;18.33;9.80;;;5.20;99.90;;;;;;5131603;27;20059;-63
2021/03/23 04:37:04;;;;;;;17.97;10.27;;;5.30;99.90;;;;;;5131206;27;20465;-63
2021/03/23 04:39:30;;;;;;;15.27;10.80;;;5.30;99.90;;;;;;5131594;27;20058;-63
2021/03/23 04:41:56;;;;;;;14.57;10.37;;;5.30;99.90;;;;;;5131266;27;20047;-64
2021/03/23 04:44:22;;;;;;;15.67;10.83;;;5.30;99.90;;;;;;5131433;27;20043;-64
2021/03/23 04:46:47;;;;;;;19.33;11.07;;;5.30;99.90;;;;;;5131575;27;20070;-63
2021/03/23 04:49:13;;;;;;;15.97;10.47;;;5.40;99.90;;;;;;5131233;27;20327;-63
2021/03/23 04:51:39;;;;;;;18.43;10.63;;;5.40;99.90;;;;;;5131145;27;20078;-63
2021/03/23 04:54:09;;;;;;;16.03;11.07;;;5.40;99.90;;;;;;5131250;27;20126;-63
2021/03/23 04:56:38;;;;;;;17.88;11.25;;;5.40;99.90;;;;;;5131235;27;20070;-65
2021/03/23 04:59:05;;;;;;;18.05;11.07;;;5.40;99.90;;;;;;5130744;27;20191;-64
2021/03/23 05:01:30;;;;;;;18.08;11.15;;;5.40;99.90;;;;;;5131083;27;20091;-63
2021/03/23 05:03:59;;;;;;;17.87;11.50;;;5.40;99.90;;;;;;5131521;27;20074;-64
2021/03/23 05:06:25;;;;;;;22.35;11.63;;;5.40;99.90;;;;;;5131056;27;20047;-62
2021/03/23 05:08:52;;;;;;;20.83;11.68;;;5.40;99.90;;;;;;5131278;27;20434;-63
2021/03/23 05:11:24;;;;;;;17.55;10.85;;;5.40;99.90;;;;;;5131421;27;20095;-63
2021/03/23 05:13:49;;;;;;;17.40;10.02;;;5.40;99.90;;;;;;5130890;27;20050;-64
2021/03/23 05:16:16;;;;;;;17.57;12.00;;;5.40;99.90;;;;;;5130669;27;20047;-63
2021/03/23 05:18:41;;;;;;;19.50;11.45;;;5.40;99.90;;;;;;5130818;27;20151;-63
2021/03/23 05:21:08;;;;;;;21.43;11.40;;;5.40;99.90;;;;;;5130953;27;20198;-64
2021/03/23 05:23:34;;;;;;;23.52;12.18;;;5.40;99.90;;;;;;5129932;27;20054;-63
2021/03/23 05:26:01;;;;;;;20.00;12.20;;;5.40;99.90;;;;;;5129943;27;20137;-64
2021/03/23 05:28:27;;;;;;;21.20;11.95;;;5.30;99.90;;;;;;5130095;27;20058;-64
2021/03/23 05:30:54;;;;;;;17.70;11.90;;;5.30;99.90;;;;;;5129895;27;20470;-63
2021/03/23 05:33:20;;;;;;;19.15;12.52;;;5.30;99.90;;;;;;5130059;27;20397;-62
2021/03/23 05:35:49;;;;;;;20.08;12.07;;;5.20;99.90;;;;;;5130470;27;20040;-65
2021/03/23 05:38:15;;;;;;;21.88;12.15;;;5.10;99.90;;;;;;5130754;27;20087;-63
2021/03/23 05:40:48;;;;;;;20.20;12.03;;;5.10;99.90;;;;;;5130275;27;20129;-63
2021/03/23 05:43:29;;;;;;;20.83;12.15;;;5.00;99.90;;;;;;5129369;27;20043;-64
2021/03/23 05:46:02;;;;;;;22.55;11.13;;;5.00;99.90;;;;;;5130203;27;20108;-63
2021/03/23 05:48:33;;;;;;;21.50;11.90;;;5.00;99.90;;;;;;5128189;27;20047;-63
2021/03/23 05:51:03;;;;;;;18.50;11.55;;;5.00;99.90;;;;;;5129749;27;20120;-63
2021/03/23 05:53:41;;;;;;;18.08;11.80;;;5.00;99.90;;;;;;5129708;27;20043;-63
2021/03/23 05:56:08;;;;;;;19.98;13.30;;;5.00;99.90;;;;;;5129374;27;20051;-63
2021/03/23 05:58:39;;;;;;;22.13;12.45;;;5.00;99.90;;;;;;5130039;27;20067;-63
2021/03/23 06:01:20;;;;;;;20.20;12.30;;;5.00;99.90;;;;;;5130057;27;20039;-63
2021/03/23 06:04:08;;;;;;;21.30;12.23;;;5.10;99.90;;;;;;5127956;27;20489;-64
2021/03/23 06:06:46;;;;;;;20.33;12.40;;;5.10;99.90;;;;;;5130045;27;20035;-62
2021/03/23 06:09:14;;;;;;;19.98;12.40;;;5.10;99.90;;;;;;5130001;27;20094;-66
2021/03/23 06:11:40;;;;;;;21.20;12.45;;;5.10;99.90;;;;;;5131769;27;20058;-64
2021/03/23 06:14:27;;;;;;;22.42;12.68;;;5.20;99.90;;;;;;5131542;27;20039;-61
2021/03/23 06:17:27;;;;;;;23.60;12.90;;;5.20;99.90;;;;;;5129492;27;20058;-63
2021/03/23 06:20:11;;;;;;;25.15;13.18;;;5.30;99.90;;;;;;5129471;27;20058;-64
2021/03/23 06:22:45;;;;;;;23.35;14.00;;;5.20;99.90;;;;;;5117514;27;20687;-63
2021/03/23 06:25:31;;;;;;;24.58;13.25;;;5.30;99.90;;;;;;5107713;28;20050;-64
2021/03/23 06:28:28;;;;;;;22.33;13.30;;;5.30;99.90;;;;;;5108602;28;20074;-63
2021/03/23 06:31:03;;;;;;;23.55;13.88;;;5.30;99.90;;;;;;5109023;28;20040;-64
2021/03/23 06:33:30;;;;;;;23.05;13.95;;;5.30;99.90;;;;;;5108052;28;20066;-63
2021/03/23 06:36:04;;;;;;;25.80;13.02;;;5.40;99.90;;;;;;5106738;28;20039;-64
2021/03/23 06:38:35;;;;;;;24.75;14.25;;;5.50;99.90;;;;;;5107579;28;20043;-65
2021/03/23 06:41:26;;;;;;;24.77;13.85;;;5.60;99.90;;;;;;5109637;28;20047;-64
2021/03/23 06:43:56;;;;;;;26.48;13.98;;;5.70;99.90;;;;;;5108984;28;20461;-65
2021/03/23 06:46:31;;;;;;;27.95;14.70;;;5.80;99.90;;;;;;5108704;28;20051;-64
2021/03/23 06:49:12;;;;;;;26.70;14.40;;;5.80;99.90;;;;;;5107758;28;20054;-64
2021/03/23 06:51:56;;;;;;;23.92;14.13;;;5.80;99.90;;;;;;5109078;28;20489;-63
2021/03/23 06:54:37;;;;;;;22.27;14.55;;;5.90;99.90;;;;;;5107450;28;20074;-63
2021/03/23 06:57:05;;;;;;;30.35;15.15;;;6.00;99.90;;;;;;5108624;28;20078;-64
2021/03/23 06:59:44;;;;;;;29.75;15.48;;;5.90;99.90;;;;;;5116995;28;20061;-65
2021/03/23 07:02:28;;;;;;;28.30;15.30;;;6.00;99.90;;;;;;5126313;28;20055;-65
2021/03/23 07:04:54;;;;;;;26.23;15.73;;;6.00;99.90;;;;;;5109761;28;20470;-62
2021/03/23 07:07:22;;;;;;;25.67;15.17;;;6.00;99.90;;;;;;5109002;28;20054;-66
2021/03/23 07:09:54;;;;;;;25.40;16.10;;;6.10;99.90;;;;;;5109057;28;20043;-63
2021/03/23 07:12:39;;;;;;;29.55;16.35;;;6.10;99.90;;;;;;5108755;28;20040;-65
2021/03/23 07:15:26;;;;;;;27.02;16.00;;;6.20;99.90;;;;;;5105979;28;20571;-64
2021/03/23 07:18:18;;;;;;;29.02;15.68;;;6.40;99.90;;;;;;5105438;28;20048;-64
2021/03/23 07:20:49;;;;;;;27.75;16.52;;;6.50;99.90;;;;;;5105821;28;20415;-64
2021/03/23 07:23:34;;;;;;;29.08;15.55;;;6.60;99.90;;;;;;5105070;28;20039;-64
2021/03/23 07:26:21;;;;;;;29.05;16.90;;;6.60;99.90;;;;;;5104911;27;20105;-64
2021/03/23 07:28:47;;;;;;;30.80;18.05;;;6.60;99.50;;;;;;5105530;28;20040;-64
2021/03/23 07:31:22;;;;;;;29.58;17.10;;;6.70;99.60;;;;;;5105581;28;20739;-64
2021/03/23 07:33:59;;;;;;;30.42;17.70;;;6.80;99.80;;;;;;5105592;28;20336;-64
2021/03/23 07:36:47;;;;;;;30.23;18.00;;;7.00;99.70;;;;;;5105564;28;20051;-63
2021/03/23 07:39:35;;;;;;;30.88;18.08;;;7.00;99.50;;;;;;5105536;28;20081;-63
2021/03/23 07:42:16;;;;;;;29.30;18.00;;;7.00;98.30;;;;;;5105600;28;20075;-64
2021/03/23 07:44:49;;;;;;;35.92;19.13;;;7.20;98.90;;;;;;5107487;28;20050;-61
2021/03/23 07:47:27;;;;;;;29.00;18.38;;;7.30;98.90;;;;;;5112068;28;20039;-67
2021/03/23 07:50:17;;;;;;;30.67;17.80;;;7.30;98.70;;;;;;5111903;28;20422;-66
2021/03/23 07:52:50;;;;;;;31.60;18.67;;;7.40;98.60;;;;;;5111731;28;20051;-66
2021/03/23 07:55:23;;;;;;;30.80;18.65;;;7.50;98.50;;;;;;5110508;28;20127;-70
2021/03/23 07:58:17;;;;;;;36.00;19.35;;;7.60;98.20;;;;;;5111794;28;20094;-68
2021/03/23 08:00:43;;;;;;;32.78;20.48;;;7.70;97.70;;;;;;5111375;28;20043;-66
2021/03/23 08:03:11;;;;;;;30.27;19.90;;;7.70;98.00;;;;;;5092822;28;20454;-64
2021/03/23 08:06:02;;;;;;;33.83;21.70;;;7.80;97.90;;;;;;5111359;28;20139;-68
2021/03/23 08:09:02;;;;;;;34.75;20.75;;;7.90;97.50;;;;;;5111063;28;20296;-64
2021/03/23 08:11:54;;;;;;;35.73;21.67;;;7.90;96.80;;;;;;5110865;28;20481;-64
2021/03/23 08:14:43;;;;;;;34.85;20.48;;;8.00;97.30;;;;;;5112052;28;20304;-65
2021/03/23 08:17:24;;;;;;;35.78;22.60;;;8.10;97.60;;;;;;5109659;28;20047;-65
2021/03/23 08:20:08;;;;;;;37.23;21.73;;;8.20;97.50;;;;;;5110455;28;20402;-65
2021/03/23 08:22:40;;;;;;;44.28;23.75;;;8.20;97.40;;;;;;5110729;27;20313;-64
2021/03/23 08:25:42;;;;;;;36.80;22.17;;;8.30;97.40;;;;;;5111446;28;20047;-65
2021/03/23 08:28:23;;;;;;;38.60;21.73;;;8.30;96.60;;;;;;5111915;28;20301;-64
2021/03/23 08:30:58;;;;;;;37.33;23.20;;;8.40;97.20;;;;;;5111505;28;20432;-64
2021/03/23 08:33:43;;;;;;;42.20;23.87;;;8.50;96.80;;;;;;5110674;28;20306;-64
2021/03/23 08:36:12;;;;;;;45.40;23.45;;;8.60;96.70;;;;;;5110546;28;20346;-64
2021/03/23 08:39:03;;;;;;;39.53;22.83;;;8.70;96.50;;;;;;5110440;28;20143;-65
2021/03/23 08:41:36;;;;;;;40.50;23.33;;;8.90;95.90;;;;;;5109529;28;20799;-65
2021/03/23 08:44:04;;;;;;;38.30;25.23;;;8.90;96.20;;;;;;5110678;28;20293;-65
2021/03/23 08:46:35;;;;;;;43.87;25.40;;;8.90;96.40;;;;;;5110171;28;20293;-63
2021/03/23 08:49:06;;;;;;;37.13;23.77;;;8.60;95.60;;;;;;5109997;28;20325;-64
2021/03/23 08:51:37;;;;;;;37.47;24.20;;;8.60;96.20;;;;;;5108209;28;20293;-64
2021/03/23 08:54:04;;;;;;;45.37;26.03;;;8.50;96.70;;;;;;5109150;28;20812;-64
2021/03/23 08:56:42;;;;;;;37.87;24.70;;;8.50;96.40;;;;;;5109333;28;20371;-64
2021/03/23 08:59:31;;;;;;;45.33;27.33;;;8.40;96.30;;;;;;5108983;28;20393;-65
2021/03/23 09:01:58;;;;;;;40.13;26.87;;;8.40;95.90;;;;;;5109281;28;20390;-65
2021/03/23 09:04:32;;;;;;;42.43;26.57;;;8.30;96.10;;;;;;5108699;27;20304;-64
2021/03/23 09:07:02;;;;;;;43.13;26.67;;;8.30;95.90;;;;;;5109949;28;21032;-64
2021/03/23 09:09:31;;;;;;;49.90;27.97;;;8.30;96.00;;;;;;5109941;28;20053;-64
2021/03/23 09:12:14;;;;;;;43.47;26.83;;;8.40;96.60;;;;;;5110029;28;20775;-63
2021/03/23 09:15:10;;;;;;;42.43;28.33;;;8.40;96.30;;;;;;5110313;28;20380;-63
2021/03/23 09:17:49;;;;;;;43.77;27.63;;;8.50;95.90;;;;;;5108562;28;20325;-64
2021/03/23 09:20:33;;;;;;;39.60;26.63;;;8.40;96.00;;;;;;5109390;28;20358;-66
2021/03/23 09:23:19;;;;;;;41.20;26.65;;;8.50;95.70;;;;;;5108489;27;20328;-64
2021/03/23 09:26:29;;;;;;;45.13;28.37;;;8.50;95.90;;;;;;5095144;28;20086;-64
2021/03/23 09:28:55;;;;;;;43.03;27.27;;;8.60;95.90;;;;;;5099658;28;20329;-64
2021/03/23 09:31:40;;;;;;;38.67;26.03;;;8.60;96.10;;;;;;5109544;28;20333;-64
2021/03/23 09:34:45;;;;;;;44.73;27.10;;;8.70;95.80;;;;;;5109556;28;20047;-64
2021/03/23 09:37:32;;;;;;;38.37;26.27;;;8.90;95.10;;;;;;5109133;28;20300;-66
2021/03/23 09:39:58;;;;;;;44.73;27.83;;;9.10;94.70;;;;;;5115966;28;20338;-64
2021/03/23 09:42:36;;;;;;;41.17;28.40;;;9.40;94.80;;;;;;5110491;28;20323;-65
2021/03/23 09:45:10;;;;;;;43.53;28.00;;;9.50;94.40;;;;;;5109313;28;20290;-65
2021/03/23 09:47:50;;;;;;;44.03;27.43;;;9.70;93.90;;;;;;5109007;28;20384;-64
2021/03/23 09:50:35;;;;;;;48.50;28.30;;;9.90;94.10;;;;;;5109159;28;20293;-65
2021/03/23 09:53:15;;;;;;;45.20;28.00;;;10.00;93.80;;;;;;5108673;28;20301;-66
2021/03/23 09:55:41;;;;;;;41.13;27.43;;;10.10;93.40;;;;;;5109047;28;20308;-65
2021/03/23 09:58:19;;;;;;;40.30;28.00;;;10.10;93.20;;;;;;5109098;28;20391;-65
2021/03/23 10:00:45;;;;;;;45.63;29.93;;;10.30;93.30;;;;;;5108873;28;20759;-64
2021/03/23 10:03:34;;;;;;;47.13;28.67;;;10.30;92.90;;;;;;5109349;28;20316;-65
2021/03/23 10:06:26;;;;;;;43.70;28.37;;;10.30;92.10;;;;;;5108709;28;20067;-65
2021/03/23 10:09:05;;;;;;;44.23;28.17;;;10.20;92.40;;;;;;5094330;28;20389;-64
2021/03/23 10:11:41;;;;;;;47.27;29.43;;;10.20;92.70;;;;;;5108454;28;20694;-64
2021/03/23 10:14:12;;;;;;;49.17;30.23;;;10.10;93.30;;;;;;5109247;28;20339;-64
2021/03/23 10:16:42;;;;;;;45.27;30.87;;;10.10;93.60;;;;;;5110539;28;20297;-62
2021/03/23 10:19:24;;;;;;;49.90;30.47;;;10.00;93.80;;;;;;5109857;28;20301;-60
2021/03/23 10:21:53;;;;;;;52.60;32.27;;;10.00;94.30;;;;;;5108113;28;20327;-64
2021/03/23 10:24:24;;;;;;;52.80;32.73;;;10.00;94.20;;;;;;5106117;28;20807;-65
2021/03/23 10:26:53;;;;;;;52.40;33.50;;;10.00;94.30;;;;;;5106759;28;20297;-64
2021/03/23 10:29:24;;;;;;;57.23;34.13;;;10.00;94.30;;;;;;5106936;28;20297;-66
2021/03/23 10:31:52;;;;;;;53.87;34.07;;;10.00;94.10;;;;;;5108503;28;20452;-66
2021/03/23 10:34:23;;;;;;;55.17;34.83;;;10.00;94.40;;;;;;5107728;28;20838;-67
2021/03/23 10:36:50;;;;;;;55.53;34.77;;;9.90;94.50;;;;;;5107415;28;20366;-66
2021/03/23 10:39:29;;;;;;;51.27;33.47;;;9.80;94.40;;;;;;5107669;28;20297;-64
2021/03/23 10:41:56;;;;;;;51.43;34.07;;;9.90;94.50;;;;;;5110152;28;20396;-64
2021/03/23 10:44:26;;;;;;;59.10;34.20;;;9.80;94.40;;;;;;5121393;28;20317;-63
2021/03/23 10:46:53;;;;;;;53.07;34.70;;;9.70;94.50;;;;;;5125298;28;20402;-61
2021/03/23 10:49:24;;;;;;;55.50;35.27;;;9.60;94.70;;;;;;5131249;28;20309;-62
2021/03/23 10:51:56;;;;;;;57.40;37.07;;;9.60;94.70;;;;;;5129667;28;20285;-62
2021/03/23 10:54:36;;;;;;;55.30;35.80;;;9.70;95.10;;;;;;5130927;28;20277;-62
2021/03/23 10:57:26;;;;;;;62.37;38.13;;;9.70;94.80;;;;;;5131854;28;20450;-62
2021/03/23 10:59:52;;;;;;;60.73;38.50;;;9.80;94.60;;;;;;5128208;28;20378;-62
2021/03/23 11:02:22;;;;;;;70.70;39.40;;;9.70;94.60;;;;;;5132228;28;20304;-61
2021/03/23 11:05:00;;;;;;;66.77;40.13;;;9.50;94.90;;;;;;5131085;28;20320;-62
2021/03/23 11:07:29;;;;;;;65.60;39.97;;;9.60;94.60;;;;;;5130047;28;20358;-63
2021/03/23 11:10:00;;;;;;;72.23;40.47;;;9.60;94.70;;;;;;5132026;28;20300;-63
2021/03/23 11:12:30;;;;;;;63.03;38.27;;;9.80;94.60;;;;;;5131904;28;20270;-63
2021/03/23 11:14:58;;;;;;;70.67;40.33;;;9.70;94.60;;;;;;5130301;28;20319;-63
2021/03/23 11:17:25;;;;;;;65.90;39.53;;;9.90;94.00;;;;;;5132057;28;20274;-64
2021/03/23 11:19:57;;;;;;;64.73;40.23;;;9.90;94.00;;;;;;5129324;28;20316;-63
2021/03/23 11:22:33;;;;;;;67.87;39.73;;;10.00;94.00;;;;;;5134909;28;20385;-62
2021/03/23 11:24:59;;;;;;;66.00;38.57;;;10.00;93.40;;;;;;5135177;28;20281;-63
2021/03/23 11:27:28;;;;;;;63.20;38.37;;;9.60;93.50;;;;;;5132926;28;20309;-65
2021/03/23 11:29:58;;;;;;;66.73;39.67;;;9.60;93.90;;;;;;5134939;28;20098;-63
2021/03/23 11:32:25;;;;;;;70.57;40.07;;;9.60;94.10;;;;;;5134363;28;20365;-62
2021/03/23 11:34:51;;;;;;;66.43;40.37;;;9.50;94.00;;;;;;5134486;28;20285;-63
2021/03/23 11:37:19;;;;;;;72.77;41.03;;;9.50;94.50;;;;;;5134881;28;20468;-63
2021/03/23 11:39:44;;;;;;;70.17;41.73;;;9.50;94.50;;;;;;5130705;28;20044;-63
2021/03/23 11:42:15;;;;;;;79.77;43.60;;;9.60;94.70;;;;;;5134317;28;20320;-62
2021/03/23 11:44:44;;;;;;;83.20;44.43;;;9.50;94.60;;;;;;5134334;28;20062;-64
2021/03/23 11:47:26;;;;;;;75.77;42.60;;;9.60;94.90;;;;;;5135026;28;20360;-63
2021/03/23 11:50:01;;;;;;;79.50;42.73;;;9.60;94.60;;;;;;5135140;28;20289;-63
2021/03/23 11:52:27;;;;;;;74.03;42.33;;;9.30;94.10;;;;;;5134753;28;20289;-64
2021/03/23 11:54:53;;;;;;;74.27;41.60;;;9.70;94.70;;;;;;5134991;28;20383;-62
2021/03/23 11:57:19;;;;;;;69.17;39.70;;;9.80;94.70;;;;;;5135594;28;20028;-62
2021/03/23 11:59:45;;;;;;;69.43;41.67;;;9.80;93.60;;;;;;5135735;28;20285;-64
2021/03/23 12:02:12;;;;;;;69.90;40.33;;;9.80;93.60;;;;;;5135329;28;20319;-63
2021/03/23 12:04:37;;;;;;;68.60;40.53;;;9.90;93.40;;;;;;5123751;28;20297;-68
2021/03/23 12:07:28;;;;;;;69.83;40.77;;;9.90;93.50;;;;;;5122931;28;20285;-63
2021/03/23 12:10:03;;;;;;;69.47;39.10;;;10.00;93.40;;;;;;5134079;28;20060;-63
2021/03/23 12:12:45;;;;;;;67.30;39.93;;;10.10;93.30;;;;;;5128794;28;20631;-63
2021/03/23 12:15:15;;;;;;;65.97;41.23;;;10.10;92.80;;;;;;5117111;28;20309;-62
2021/03/23 12:17:46;;;;;;;63.93;37.97;;;9.80;92.90;;;;;;5112598;28;20369;-63
2021/03/23 12:20:20;;;;;;;63.87;38.97;;;9.90;93.50;;;;;;5119636;28;20294;-63
2021/03/23 12:22:51;;;;;;;65.97;39.00;;;9.90;93.20;;;;;;5120308;28;20822;-62
2021/03/23 12:25:19;;;;;;;66.40;39.70;;;10.10;92.50;;;;;;5122826;28;20397;-62
2021/03/23 12:27:45;;;;;;;65.30;40.30;;;10.00;93.10;;;;;;5121343;28;20370;-63
2021/03/23 12:30:11;;;;;;;62.60;38.27;;;10.10;93.00;;;;;;5119397;28;20297;-63
2021/03/23 12:32:39;;;;;;;60.67;36.67;;;10.20;92.40;;;;;;5115601;27;20324;-63
2021/03/23 12:35:18;;;;;;;64.27;37.73;;;10.30;92.30;;;;;;5115264;28;20297;-63
2021/03/23 12:37:46;;;;;;;66.77;38.43;;;10.40;92.30;;;;;;5122620;28;20327;-63
2021/03/23 12:40:13;;;;;;;60.57;36.30;;;10.30;91.80;;;;;;5128195;28;20289;-63
2021/03/23 12:42:39;;;;;;;60.40;37.03;;;10.40;91.80;;;;;;5128584;28;20369;-63
2021/03/23 12:45:10;;;;;;;64.13;38.50;;;10.40;91.70;;;;;;5124729;28;20297;-63
2021/03/23 12:47:36;;;;;;;59.47;36.03;;;10.40;92.00;;;;;;5128042;27;20297;-63
2021/03/23 12:50:03;;;;;;;62.27;37.53;;;10.50;92.40;;;;;;5132118;28;20345;-63
2021/03/23 12:52:30;;;;;;;61.40;35.40;;;10.50;92.40;;;;;;5118174;28;20104;-64
2021/03/23 12:54:57;;;;;;;59.30;36.30;;;10.60;92.00;;;;;;5112277;28;20349;-65
2021/03/23 12:57:26;;;;;;;59.67;34.10;;;10.60;91.50;;;;;;5112063;28;20879;-64
2021/03/23 12:59:54;;;;;;;57.97;35.83;;;10.50;91.20;;;;;;5111935;28;20353;-59
2021/03/23 13:02:23;;;;;;;55.73;35.43;;;10.70;91.50;;;;;;5116584;28;20752;-62
2021/03/23 13:04:49;;;;;;;56.67;33.90;;;11.00;91.40;;;;;;5112674;27;20782;-64
2021/03/23 13:07:24;;;;;;;54.23;34.30;;;10.80;90.70;;;;;;5110976;28;20434;-64